sensor_id;sensor_type;location;lat;lon;timestamp;pressure;altitude;pressure_sealevel;temperature;humidity
41062;BME280;26812;42.662;23.352;2023-12-07T00:01:53;94560.84;;;6.49;82.20
41062;BME280;26812;42.662;23.352;2023-12-07T00:04:18;94563.13;;;6.56;82.56
41062;BME280;26812;42.662;23.352;2023-12-07T00:06:43;94555.69;;;6.52;82.31
41062;BME280;26812;42.662;23.352;2023-12-07T00:09:09;94550.28;;;6.66;81.74
41062;BME280;26812;42.662;23.352;2023-12-07T00:11:34;94566.03;;;6.81;81.36
41062;BME280;26812;42.662;23.352;2023-12-07T00:14:00;94573.66;;;6.88;80.50
41062;BME280;26812;42.662;23.352;2023-12-07T00:16:25;94542.56;;;6.65;80.56
41062;BME280;26812;42.662;23.352;2023-12-07T00:18:50;94559.75;;;6.36;82.11
41062;BME280;26812;42.662;23.352;2023-12-07T00:21:16;94557.06;;;6.36;82.89
41062;BME280;26812;42.662;23.352;2023-12-07T00:23:41;94550.63;;;6.37;83.12
41062;BME280;26812;42.662;23.352;2023-12-07T00:26:07;94564.31;;;6.36;83.10
41062;BME280;26812;42.662;23.352;2023-12-07T00:28:32;94573.41;;;6.62;82.96
41062;BME280;26812;42.662;23.352;2023-12-07T00:30:58;94571.28;;;6.87;81.24
41062;BME280;26812;42.662;23.352;2023-12-07T00:33:23;94567.69;;;7.05;80.69
41062;BME280;26812;42.662;23.352;2023-12-07T00:35:49;94561.75;;;6.94;79.64
41062;BME280;26812;42.662;23.352;2023-12-07T00:38:15;94567.94;;;6.81;80.82
41062;BME280;26812;42.662;23.352;2023-12-07T00:40:41;94566.19;;;6.49;81.44
41062;BME280;26812;42.662;23.352;2023-12-07T00:43:06;94560.03;;;6.62;81.81
41062;BME280;26812;42.662;23.352;2023-12-07T00:45:32;94560.59;;;6.73;82.29
41062;BME280;26812;42.662;23.352;2023-12-07T00:47:58;94566.59;;;6.92;81.17
41062;BME280;26812;42.662;23.352;2023-12-07T00:50:23;94566.50;;;6.97;79.84
41062;BME280;26812;42.662;23.352;2023-12-07T00:52:49;94556.03;;;6.73;81.01
41062;BME280;26812;42.662;23.352;2023-12-07T00:55:14;94555.88;;;6.56;81.82
41062;BME280;26812;42.662;23.352;2023-12-07T00:57:40;94556.97;;;6.55;82.76
41062;BME280;26812;42.662;23.352;2023-12-07T01:00:06;94549.84;;;6.50;82.79
41062;BME280;26812;42.662;23.352;2023-12-07T01:02:32;94553.19;;;6.56;83.03
41062;BME280;26812;42.662;23.352;2023-12-07T01:04:57;94549.22;;;6.40;83.35
41062;BME280;26812;42.662;23.352;2023-12-07T01:07:24;94554.28;;;6.41;84.09
41062;BME280;26812;42.662;23.352;2023-12-07T01:09:50;94553.59;;;6.49;84.27
41062;BME280;26812;42.662;23.352;2023-12-07T01:12:15;94555.38;;;6.54;84.03
41062;BME280;26812;42.662;23.352;2023-12-07T01:14:41;94536.56;;;6.45;83.89
41062;BME280;26812;42.662;23.352;2023-12-07T01:17:06;94556.06;;;7.09;81.01
41062;BME280;26812;42.662;23.352;2023-12-07T01:19:32;94524.13;;;6.63;80.96
41062;BME280;26812;42.662;23.352;2023-12-07T01:21:57;94540.97;;;6.64;82.27
41062;BME280;26812;42.662;23.352;2023-12-07T01:24:22;94533.75;;;6.64;81.91
41062;BME280;26812;42.662;23.352;2023-12-07T01:26:48;94527.91;;;6.62;81.62
41062;BME280;26812;42.662;23.352;2023-12-07T01:29:13;94548.09;;;6.82;82.22
41062;BME280;26812;42.662;23.352;2023-12-07T01:31:40;94551.06;;;6.80;81.29
41062;BME280;26812;42.662;23.352;2023-12-07T01:34:05;94539.41;;;6.63;81.93
41062;BME280;26812;42.662;23.352;2023-12-07T01:36:31;94541.97;;;6.68;83.08
41062;BME280;26812;42.662;23.352;2023-12-07T01:38:56;94543.94;;;6.76;82.20
41062;BME280;26812;42.662;23.352;2023-12-07T01:41:22;94537.59;;;6.72;83.05
41062;BME280;26812;42.662;23.352;2023-12-07T01:43:47;94533.03;;;7.08;80.22
41062;BME280;26812;42.662;23.352;2023-12-07T01:46:15;94540.34;;;7.16;79.46
41062;BME280;26812;42.662;23.352;2023-12-07T01:48:42;94535.91;;;7.12;79.56
41062;BME280;26812;42.662;23.352;2023-12-07T01:51:09;94539.44;;;7.21;79.34
41062;BME280;26812;42.662;23.352;2023-12-07T01:53:39;94533.09;;;7.17;79.21
41062;BME280;26812;42.662;23.352;2023-12-07T01:56:05;94528.94;;;6.89;80.70
41062;BME280;26812;42.662;23.352;2023-12-07T01:58:32;94541.28;;;6.76;81.50
41062;BME280;26812;42.662;23.352;2023-12-07T02:00:57;94536.22;;;6.61;81.52
41062;BME280;26812;42.662;23.352;2023-12-07T02:03:23;94538.34;;;6.50;82.64
41062;BME280;26812;42.662;23.352;2023-12-07T02:05:49;94545.66;;;6.58;82.40
41062;BME280;26812;42.662;23.352;2023-12-07T02:08:16;94544.19;;;6.52;82.70
41062;BME280;26812;42.662;23.352;2023-12-07T02:10:41;94535.06;;;6.39;83.17
41062;BME280;26812;42.662;23.352;2023-12-07T02:13:07;94539.44;;;6.49;83.46
41062;BME280;26812;42.662;23.352;2023-12-07T02:15:34;94536.84;;;6.58;83.37
41062;BME280;26812;42.662;23.352;2023-12-07T02:18:43;94535.03;;;6.67;82.49
41062;BME280;26812;42.662;23.352;2023-12-07T02:21:55;94532.28;;;6.58;82.50
41062;BME280;26812;42.662;23.352;2023-12-07T02:24:25;94529.94;;;6.29;83.09
41062;BME280;26812;42.662;23.352;2023-12-07T02:26:52;94533.00;;;6.36;84.16
41062;BME280;26812;42.662;23.352;2023-12-07T02:29:17;94526.66;;;6.32;83.74
41062;BME280;26812;42.662;23.352;2023-12-07T02:31:43;94523.63;;;6.61;83.21
41062;BME280;26812;42.662;23.352;2023-12-07T02:34:09;94528.47;;;6.73;82.11
41062;BME280;26812;42.662;23.352;2023-12-07T02:36:35;94522.91;;;6.69;81.13
41062;BME280;26812;42.662;23.352;2023-12-07T02:39:02;94521.75;;;6.62;81.64
41062;BME280;26812;42.662;23.352;2023-12-07T02:41:31;94521.97;;;6.51;82.23
41062;BME280;26812;42.662;23.352;2023-12-07T02:43:57;94508.31;;;6.39;82.64
41062;BME280;26812;42.662;23.352;2023-12-07T02:46:24;94522.13;;;6.19;83.60
41062;BME280;26812;42.662;23.352;2023-12-07T02:48:50;94515.84;;;6.37;84.00
41062;BME280;26812;42.662;23.352;2023-12-07T02:51:15;94523.19;;;6.45;83.75
41062;BME280;26812;42.662;23.352;2023-12-07T02:53:41;94517.91;;;6.40;83.79
41062;BME280;26812;42.662;23.352;2023-12-07T02:56:07;94515.47;;;6.30;83.82
41062;BME280;26812;42.662;23.352;2023-12-07T02:58:32;94526.50;;;6.78;83.65
41062;BME280;26812;42.662;23.352;2023-12-07T03:00:57;94523.38;;;6.85;83.00
41062;BME280;26812;42.662;23.352;2023-12-07T03:03:24;94521.34;;;6.68;82.38
41062;BME280;26812;42.662;23.352;2023-12-07T03:05:50;94530.56;;;6.62;83.06
41062;BME280;26812;42.662;23.352;2023-12-07T03:08:15;94531.34;;;6.76;82.78
41062;BME280;26812;42.662;23.352;2023-12-07T03:10:41;94526.06;;;6.85;82.43
41062;BME280;26812;42.662;23.352;2023-12-07T03:13:06;94541.75;;;6.78;81.59
41062;BME280;26812;42.662;23.352;2023-12-07T03:15:31;94542.44;;;6.83;81.92
41062;BME280;26812;42.662;23.352;2023-12-07T03:18:03;94538.41;;;6.59;81.84
41062;BME280;26812;42.662;23.352;2023-12-07T03:20:28;94534.97;;;6.44;83.10
41062;BME280;26812;42.662;23.352;2023-12-07T03:22:54;94533.41;;;6.43;82.33
41062;BME280;26812;42.662;23.352;2023-12-07T03:25:19;94543.34;;;6.79;82.43
41062;BME280;26812;42.662;23.352;2023-12-07T03:27:44;94508.91;;;6.86;81.04
41062;BME280;26812;42.662;23.352;2023-12-07T03:30:10;94548.06;;;7.18;79.23
41062;BME280;26812;42.662;23.352;2023-12-07T03:32:36;94549.19;;;7.03;79.02
41062;BME280;26812;42.662;23.352;2023-12-07T03:35:01;94554.50;;;6.95;80.11
41062;BME280;26812;42.662;23.352;2023-12-07T03:37:27;94551.56;;;6.82;79.73
41062;BME280;26812;42.662;23.352;2023-12-07T03:39:52;94559.53;;;6.74;80.91
41062;BME280;26812;42.662;23.352;2023-12-07T03:42:17;94555.84;;;6.70;81.36
41062;BME280;26812;42.662;23.352;2023-12-07T03:44:43;94539.44;;;6.35;82.08
41062;BME280;26812;42.662;23.352;2023-12-07T03:47:09;94553.50;;;6.27;83.88
41062;BME280;26812;42.662;23.352;2023-12-07T03:49:34;94546.78;;;6.30;83.68
41062;BME280;26812;42.662;23.352;2023-12-07T03:52:00;94548.06;;;6.46;83.70
41062;BME280;26812;42.662;23.352;2023-12-07T03:54:26;94552.00;;;6.62;84.13
41062;BME280;26812;42.662;23.352;2023-12-07T03:56:52;94542.25;;;6.80;82.70
41062;BME280;26812;42.662;23.352;2023-12-07T03:59:17;94543.16;;;7.11;79.30
41062;BME280;26812;42.662;23.352;2023-12-07T04:01:43;94529.41;;;6.91;79.48
41062;BME280;26812;42.662;23.352;2023-12-07T04:04:08;94539.34;;;6.90;80.44
41062;BME280;26812;42.662;23.352;2023-12-07T04:06:34;94542.69;;;6.96;80.23
41062;BME280;26812;42.662;23.352;2023-12-07T04:08:59;94537.44;;;6.91;80.02
41062;BME280;26812;42.662;23.352;2023-12-07T04:11:25;94541.28;;;6.62;80.70
41062;BME280;26812;42.662;23.352;2023-12-07T04:13:50;94535.06;;;6.39;81.60
41062;BME280;26812;42.662;23.352;2023-12-07T04:16:16;94535.66;;;6.36;82.87
41062;BME280;26812;42.662;23.352;2023-12-07T04:18:41;94542.00;;;6.54;82.97
41062;BME280;26812;42.662;23.352;2023-12-07T04:21:07;94547.69;;;6.89;81.23
41062;BME280;26812;42.662;23.352;2023-12-07T04:23:32;94555.88;;;7.06;79.10
41062;BME280;26812;42.662;23.352;2023-12-07T04:25:58;94546.41;;;6.86;79.69
41062;BME280;26812;42.662;23.352;2023-12-07T04:28:23;94558.44;;;6.75;80.04
41062;BME280;26812;42.662;23.352;2023-12-07T04:30:49;94568.13;;;6.71;81.05
41062;BME280;26812;42.662;23.352;2023-12-07T04:33:14;94566.94;;;6.77;80.99
41062;BME280;26812;42.662;23.352;2023-12-07T04:35:40;94568.44;;;6.69;80.69
41062;BME280;26812;42.662;23.352;2023-12-07T04:38:05;94578.34;;;6.69;81.09
41062;BME280;26812;42.662;23.352;2023-12-07T04:40:31;94579.56;;;6.63;81.31
41062;BME280;26812;42.662;23.352;2023-12-07T04:42:56;94576.22;;;6.30;82.01
41062;BME280;26812;42.662;23.352;2023-12-07T04:45:21;94579.66;;;6.30;82.96
41062;BME280;26812;42.662;23.352;2023-12-07T04:47:47;94551.34;;;6.29;83.37
41062;BME280;26812;42.662;23.352;2023-12-07T04:50:13;94571.03;;;6.61;82.94
41062;BME280;26812;42.662;23.352;2023-12-07T04:52:38;94575.44;;;6.43;82.70
41062;BME280;26812;42.662;23.352;2023-12-07T04:55:05;94582.72;;;6.65;83.18
41062;BME280;26812;42.662;23.352;2023-12-07T04:57:33;94565.94;;;6.87;80.92
41062;BME280;26812;42.662;23.352;2023-12-07T04:59:58;94574.09;;;7.04;79.14
41062;BME280;26812;42.662;23.352;2023-12-07T05:02:24;94584.81;;;7.04;78.87
41062;BME280;26812;42.662;23.352;2023-12-07T05:04:49;94583.16;;;6.94;78.78
41062;BME280;26812;42.662;23.352;2023-12-07T05:07:15;94585.78;;;6.85;79.24
41062;BME280;26812;42.662;23.352;2023-12-07T05:09:40;94582.72;;;6.78;79.83
41062;BME280;26812;42.662;23.352;2023-12-07T05:12:06;94581.44;;;6.62;80.97
41062;BME280;26812;42.662;23.352;2023-12-07T05:14:32;94593.84;;;6.44;82.26
41062;BME280;26812;42.662;23.352;2023-12-07T05:16:58;94589.16;;;6.77;81.84
41062;BME280;26812;42.662;23.352;2023-12-07T05:19:24;94603.38;;;7.00;79.20
41062;BME280;26812;42.662;23.352;2023-12-07T05:21:51;94595.69;;;6.85;79.64
41062;BME280;26812;42.662;23.352;2023-12-07T05:24:16;94603.34;;;6.78;80.24
41062;BME280;26812;42.662;23.352;2023-12-07T05:26:42;94585.00;;;6.58;80.35
41062;BME280;26812;42.662;23.352;2023-12-07T05:29:08;94566.78;;;6.32;80.97
41062;BME280;26812;42.662;23.352;2023-12-07T05:31:35;94596.13;;;6.37;81.37
41062;BME280;26812;42.662;23.352;2023-12-07T05:34:02;94602.06;;;6.34;81.31
41062;BME280;26812;42.662;23.352;2023-12-07T05:36:27;94594.66;;;6.17;82.76
41062;BME280;26812;42.662;23.352;2023-12-07T05:38:53;94594.81;;;5.94;83.62
41062;BME280;26812;42.662;23.352;2023-12-07T05:41:18;94576.91;;;5.75;84.69
41062;BME280;26812;42.662;23.352;2023-12-07T05:43:43;94588.72;;;5.88;84.73
41062;BME280;26812;42.662;23.352;2023-12-07T05:46:09;94607.78;;;6.00;85.13
41062;BME280;26812;42.662;23.352;2023-12-07T05:48:34;94606.59;;;6.06;84.56
41062;BME280;26812;42.662;23.352;2023-12-07T05:51:01;94595.81;;;6.11;83.74
41062;BME280;26812;42.662;23.352;2023-12-07T05:53:27;94607.22;;;6.31;82.93
41062;BME280;26812;42.662;23.352;2023-12-07T05:55:52;94602.66;;;6.17;82.78
41062;BME280;26812;42.662;23.352;2023-12-07T05:58:17;94606.34;;;6.21;82.81
41062;BME280;26812;42.662;23.352;2023-12-07T06:00:43;94622.84;;;6.10;83.82
41062;BME280;26812;42.662;23.352;2023-12-07T06:03:09;94612.19;;;6.23;83.17
41062;BME280;26812;42.662;23.352;2023-12-07T06:05:37;94584.72;;;6.18;82.95
41062;BME280;26812;42.662;23.352;2023-12-07T06:08:03;94607.53;;;6.43;82.49
41062;BME280;26812;42.662;23.352;2023-12-07T06:10:29;94613.47;;;6.53;81.96
41062;BME280;26812;42.662;23.352;2023-12-07T06:12:55;94627.56;;;6.45;81.58
41062;BME280;26812;42.662;23.352;2023-12-07T06:15:22;94621.28;;;6.36;82.98
41062;BME280;26812;42.662;23.352;2023-12-07T06:17:48;94625.56;;;6.65;82.59
41062;BME280;26812;42.662;23.352;2023-12-07T06:20:13;94606.44;;;6.58;82.17
41062;BME280;26812;42.662;23.352;2023-12-07T06:22:38;94622.53;;;7.07;79.96
41062;BME280;26812;42.662;23.352;2023-12-07T06:25:04;94628.50;;;7.04;78.50
41062;BME280;26812;42.662;23.352;2023-12-07T06:27:30;94631.84;;;6.96;78.84
41062;BME280;26812;42.662;23.352;2023-12-07T06:29:56;94631.00;;;6.87;79.32
41062;BME280;26812;42.662;23.352;2023-12-07T06:32:21;94628.84;;;6.75;80.60
41062;BME280;26812;42.662;23.352;2023-12-07T06:34:47;94622.72;;;6.97;79.23
41062;BME280;26812;42.662;23.352;2023-12-07T06:37:13;94633.84;;;7.04;79.16
41062;BME280;26812;42.662;23.352;2023-12-07T06:39:38;94637.28;;;7.19;78.44
41062;BME280;26812;42.662;23.352;2023-12-07T06:42:04;94646.41;;;7.18;79.04
41062;BME280;26812;42.662;23.352;2023-12-07T06:44:29;94638.88;;;7.20;78.02
41062;BME280;26812;42.662;23.352;2023-12-07T06:46:55;94642.53;;;6.74;79.03
41062;BME280;26812;42.662;23.352;2023-12-07T06:49:20;94630.56;;;6.94;79.92
41062;BME280;26812;42.662;23.352;2023-12-07T06:51:45;94634.47;;;7.24;77.97
41062;BME280;26812;42.662;23.352;2023-12-07T06:54:11;94638.69;;;7.16;78.25
41062;BME280;26812;42.662;23.352;2023-12-07T06:56:36;94650.56;;;7.24;79.46
41062;BME280;26812;42.662;23.352;2023-12-07T06:59:02;94640.13;;;7.36;79.59
41062;BME280;26812;42.662;23.352;2023-12-07T07:01:27;94646.94;;;7.64;78.67
41062;BME280;26812;42.662;23.352;2023-12-07T07:03:53;94644.78;;;7.66;76.29
41062;BME280;26812;42.662;23.352;2023-12-07T07:06:19;94641.91;;;7.27;76.76
41062;BME280;26812;42.662;23.352;2023-12-07T07:08:44;94646.41;;;7.18;77.38
41062;BME280;26812;42.662;23.352;2023-12-07T07:11:12;94643.06;;;6.98;78.42
41062;BME280;26812;42.662;23.352;2023-12-07T07:13:39;94643.59;;;6.87;78.66
41062;BME280;26812;42.662;23.352;2023-12-07T07:16:04;94641.47;;;7.11;77.31
41062;BME280;26812;42.662;23.352;2023-12-07T07:18:30;94654.69;;;6.94;77.79
41062;BME280;26812;42.662;23.352;2023-12-07T07:20:55;94633.94;;;6.99;77.74
41062;BME280;26812;42.662;23.352;2023-12-07T07:23:20;94655.53;;;7.16;76.95
41062;BME280;26812;42.662;23.352;2023-12-07T07:25:46;94651.91;;;6.85;77.88
41062;BME280;26812;42.662;23.352;2023-12-07T07:28:11;94653.31;;;6.69;78.76
41062;BME280;26812;42.662;23.352;2023-12-07T07:30:37;94629.81;;;6.52;79.41
41062;BME280;26812;42.662;23.352;2023-12-07T07:33:03;94643.88;;;6.71;79.32
41062;BME280;26812;42.662;23.352;2023-12-07T07:35:29;94649.31;;;6.94;78.95
41062;BME280;26812;42.662;23.352;2023-12-07T07:37:54;94651.28;;;7.15;77.62
41062;BME280;26812;42.662;23.352;2023-12-07T07:40:20;94651.16;;;7.21;77.81
41062;BME280;26812;42.662;23.352;2023-12-07T07:42:46;94647.31;;;6.99;78.86
41062;BME280;26812;42.662;23.352;2023-12-07T07:45:11;94661.50;;;7.13;77.90
41062;BME280;26812;42.662;23.352;2023-12-07T07:47:36;94663.59;;;7.16;78.08
41062;BME280;26812;42.662;23.352;2023-12-07T07:50:02;94673.13;;;6.95;78.39
41062;BME280;26812;42.662;23.352;2023-12-07T07:52:34;94672.91;;;7.19;79.02
41062;BME280;26812;42.662;23.352;2023-12-07T07:55:06;94679.72;;;7.39;77.98
41062;BME280;26812;42.662;23.352;2023-12-07T07:57:32;94673.97;;;7.32;77.46
41062;BME280;26812;42.662;23.352;2023-12-07T07:59:58;94679.66;;;7.53;77.27
41062;BME280;26812;42.662;23.352;2023-12-07T08:02:23;94687.03;;;7.47;76.67
41062;BME280;26812;42.662;23.352;2023-12-07T08:04:49;94689.84;;;7.64;76.50
41062;BME280;26812;42.662;23.352;2023-12-07T08:07:15;94683.19;;;6.76;77.95
41062;BME280;26812;42.662;23.352;2023-12-07T08:09:40;94690.28;;;6.53;79.56
41062;BME280;26812;42.662;23.352;2023-12-07T08:12:06;94703.16;;;6.37;80.08
41062;BME280;26812;42.662;23.352;2023-12-07T08:14:35;94692.34;;;6.29;79.75
41062;BME280;26812;42.662;23.352;2023-12-07T08:17:01;94706.03;;;6.41;79.90
41062;BME280;26812;42.662;23.352;2023-12-07T08:19:26;94701.34;;;6.19;79.89
41062;BME280;26812;42.662;23.352;2023-12-07T08:21:52;94694.31;;;6.23;79.82
41062;BME280;26812;42.662;23.352;2023-12-07T08:24:18;94696.94;;;6.56;78.89
41062;BME280;26812;42.662;23.352;2023-12-07T08:26:43;94707.66;;;6.56;78.73
41062;BME280;26812;42.662;23.352;2023-12-07T08:29:08;94709.91;;;6.48;78.50
41062;BME280;26812;42.662;23.352;2023-12-07T08:31:34;94707.34;;;6.43;79.92
41062;BME280;26812;42.662;23.352;2023-12-07T08:33:59;94713.78;;;6.56;78.64
41062;BME280;26812;42.662;23.352;2023-12-07T08:36:26;94715.44;;;6.38;77.26
41062;BME280;26812;42.662;23.352;2023-12-07T08:38:51;94700.47;;;6.23;78.45
41062;BME280;26812;42.662;23.352;2023-12-07T08:41:17;94718.06;;;6.43;77.35
41062;BME280;26812;42.662;23.352;2023-12-07T10:21:54;94733.78;;;4.76;80.96
41062;BME280;26812;42.662;23.352;2023-12-07T10:24:21;94730.53;;;4.55;81.54
41062;BME280;26812;42.662;23.352;2023-12-07T10:26:48;94732.72;;;4.24;82.09
41062;BME280;26812;42.662;23.352;2023-12-07T10:29:14;94722.53;;;4.02;82.25
41062;BME280;26812;42.662;23.352;2023-12-07T10:31:39;94724.00;;;4.13;82.77
41062;BME280;26812;42.662;23.352;2023-12-07T10:34:06;94726.00;;;4.02;83.00
41062;BME280;26812;42.662;23.352;2023-12-07T10:36:31;94737.88;;;3.81;83.85
41062;BME280;26812;42.662;23.352;2023-12-07T10:38:58;94733.44;;;3.66;84.41
41062;BME280;26812;42.662;23.352;2023-12-07T10:41:24;94733.72;;;3.70;84.76
41062;BME280;26812;42.662;23.352;2023-12-07T10:43:53;94729.34;;;3.45;85.27
41062;BME280;26812;42.662;23.352;2023-12-07T10:46:21;94717.28;;;3.53;85.17
41062;BME280;26812;42.662;23.352;2023-12-07T10:49:07;94726.53;;;3.65;85.17
41062;BME280;26812;42.662;23.352;2023-12-07T10:51:45;94732.97;;;3.59;85.48
41062;BME280;26812;42.662;23.352;2023-12-07T10:54:14;94733.66;;;3.75;84.53
41062;BME280;26812;42.662;23.352;2023-12-07T10:56:45;94715.47;;;3.48;84.77
41062;BME280;26812;42.662;23.352;2023-12-07T10:59:12;94730.06;;;3.56;84.77
41062;BME280;26812;42.662;23.352;2023-12-07T11:01:40;94729.63;;;3.43;84.99
41062;BME280;26812;42.662;23.352;2023-12-07T11:04:11;94720.31;;;3.41;85.36
41062;BME280;26812;42.662;23.352;2023-12-07T11:06:37;94728.03;;;3.42;84.92
41062;BME280;26812;42.662;23.352;2023-12-07T11:09:07;94727.47;;;3.46;85.64
41062;BME280;26812;42.662;23.352;2023-12-07T11:11:39;94708.16;;;3.25;84.93
41062;BME280;26812;42.662;23.352;2023-12-07T11:14:07;94723.13;;;3.16;85.63
41062;BME280;26812;42.662;23.352;2023-12-07T11:16:35;94710.41;;;3.02;86.93
41062;BME280;26812;42.662;23.352;2023-12-07T11:19:01;94734.59;;;3.11;87.36
41062;BME280;26812;42.662;23.352;2023-12-07T11:21:27;94732.47;;;3.08;87.05
41062;BME280;26812;42.662;23.352;2023-12-07T11:23:53;94730.00;;;3.22;86.93
41062;BME280;26812;42.662;23.352;2023-12-07T11:26:23;94730.53;;;3.24;87.57
41062;BME280;26812;42.662;23.352;2023-12-07T11:28:48;94733.94;;;3.29;87.40
41062;BME280;26812;42.662;23.352;2023-12-07T11:31:14;94698.84;;;3.22;86.20
41062;BME280;26812;42.662;23.352;2023-12-07T11:33:41;94726.28;;;3.23;86.34
41062;BME280;26812;42.662;23.352;2023-12-07T11:36:09;94714.38;;;3.05;87.26
41062;BME280;26812;42.662;23.352;2023-12-07T11:38:39;94714.13;;;3.06;87.15
41062;BME280;26812;42.662;23.352;2023-12-07T11:41:23;94721.13;;;3.36;87.16
41062;BME280;26812;42.662;23.352;2023-12-07T11:43:50;94712.75;;;3.14;86.79
41062;BME280;26812;42.662;23.352;2023-12-07T11:46:18;94702.88;;;3.20;87.41
41062;BME280;26812;42.662;23.352;2023-12-07T11:48:48;94717.44;;;3.27;86.66
41062;BME280;26812;42.662;23.352;2023-12-07T11:51:15;94704.78;;;3.04;87.57
41062;BME280;26812;42.662;23.352;2023-12-07T11:53:40;94705.41;;;3.35;88.06
41062;BME280;26812;42.662;23.352;2023-12-07T11:56:08;94710.28;;;3.23;87.60
41062;BME280;26812;42.662;23.352;2023-12-07T11:58:35;94696.59;;;3.45;87.22
41062;BME280;26812;42.662;23.352;2023-12-07T12:01:01;94708.41;;;3.28;87.50
41062;BME280;26812;42.662;23.352;2023-12-07T12:03:29;94710.56;;;3.21;87.67
41062;BME280;26812;42.662;23.352;2023-12-07T12:05:56;94707.63;;;3.23;88.04
41062;BME280;26812;42.662;23.352;2023-12-07T12:08:22;94709.22;;;3.24;87.73
41062;BME280;26812;42.662;23.352;2023-12-07T12:10:49;94714.81;;;3.22;87.18
41062;BME280;26812;42.662;23.352;2023-12-07T12:13:15;94695.66;;;3.20;87.51
41062;BME280;26812;42.662;23.352;2023-12-07T12:15:41;94713.75;;;3.23;86.87
41062;BME280;26812;42.662;23.352;2023-12-07T12:18:08;94711.53;;;3.35;87.42
41062;BME280;26812;42.662;23.352;2023-12-07T12:20:34;94713.28;;;3.55;86.83
41062;BME280;26812;42.662;23.352;2023-12-07T12:22:59;94688.97;;;3.28;87.02
41062;BME280;26812;42.662;23.352;2023-12-07T12:25:27;94688.69;;;3.29;86.80
41062;BME280;26812;42.662;23.352;2023-12-07T12:27:57;94706.72;;;3.42;86.94
41062;BME280;26812;42.662;23.352;2023-12-07T12:30:24;94715.34;;;3.24;87.31
41062;BME280;26812;42.662;23.352;2023-12-07T12:32:50;94708.13;;;3.30;87.41
41062;BME280;26812;42.662;23.352;2023-12-07T12:35:16;94700.63;;;3.37;87.41
41062;BME280;26812;42.662;23.352;2023-12-07T12:37:42;94716.50;;;3.52;87.33
41062;BME280;26812;42.662;23.352;2023-12-07T12:40:10;94707.28;;;3.39;86.46
41062;BME280;26812;42.662;23.352;2023-12-07T12:42:35;94707.38;;;3.19;86.97
41062;BME280;26812;42.662;23.352;2023-12-07T12:45:05;94716.47;;;3.13;87.75
41062;BME280;26812;42.662;23.352;2023-12-07T12:47:31;94707.00;;;2.92;87.95
41062;BME280;26812;42.662;23.352;2023-12-07T12:49:56;94714.38;;;3.10;88.39
41062;BME280;26812;42.662;23.352;2023-12-07T12:52:23;94671.09;;;2.89;87.41
41062;BME280;26812;42.662;23.352;2023-12-07T12:54:50;94719.09;;;3.18;87.97
41062;BME280;26812;42.662;23.352;2023-12-07T12:57:17;94718.81;;;3.25;87.60
41062;BME280;26812;42.662;23.352;2023-12-07T12:59:44;94724.06;;;3.35;87.31
41062;BME280;26812;42.662;23.352;2023-12-07T13:02:10;94717.47;;;3.22;87.29
41062;BME280;26812;42.662;23.352;2023-12-07T13:04:36;94718.63;;;3.06;87.62
41062;BME280;26812;42.662;23.352;2023-12-07T13:07:01;94730.09;;;3.01;88.23
41062;BME280;26812;42.662;23.352;2023-12-07T13:09:27;94730.56;;;3.19;87.88
41062;BME280;26812;42.662;23.352;2023-12-07T13:11:54;94742.38;;;2.97;87.83
41062;BME280;26812;42.662;23.352;2023-12-07T13:14:19;94739.19;;;2.95;88.55
41062;BME280;26812;42.662;23.352;2023-12-07T13:16:45;94722.50;;;2.79;88.14
41062;BME280;26812;42.662;23.352;2023-12-07T13:19:10;94741.06;;;2.90;88.56
41062;BME280;26812;42.662;23.352;2023-12-07T13:21:36;94732.63;;;2.77;88.06
41062;BME280;26812;42.662;23.352;2023-12-07T13:24:01;94741.63;;;2.87;88.24
41062;BME280;26812;42.662;23.352;2023-12-07T13:26:30;94749.06;;;2.85;87.51
41062;BME280;26812;42.662;23.352;2023-12-07T13:28:55;94760.25;;;2.82;88.17
41062;BME280;26812;42.662;23.352;2023-12-07T13:31:21;94751.25;;;2.67;88.30
41062;BME280;26812;42.662;23.352;2023-12-07T13:33:47;94759.25;;;2.57;88.77
41062;BME280;26812;42.662;23.352;2023-12-07T13:36:12;94742.78;;;2.55;88.45
41062;BME280;26812;42.662;23.352;2023-12-07T13:38:39;94757.94;;;2.55;88.43
41062;BME280;26812;42.662;23.352;2023-12-07T13:41:05;94763.53;;;2.53;88.78
41062;BME280;26812;42.662;23.352;2023-12-07T13:43:32;94751.31;;;2.47;89.30
41062;BME280;26812;42.662;23.352;2023-12-07T13:45:59;94769.66;;;2.54;89.17
41062;BME280;26812;42.662;23.352;2023-12-07T13:48:24;94774.41;;;2.62;88.39
41062;BME280;26812;42.662;23.352;2023-12-07T13:50:49;94773.09;;;2.59;88.58
41062;BME280;26812;42.662;23.352;2023-12-07T13:53:15;94766.22;;;2.48;88.47
41062;BME280;26812;42.662;23.352;2023-12-07T13:55:40;94783.47;;;2.56;88.28
41062;BME280;26812;42.662;23.352;2023-12-07T13:58:06;94784.00;;;2.58;88.12
41062;BME280;26812;42.662;23.352;2023-12-07T14:00:33;94790.13;;;2.43;88.79
41062;BME280;26812;42.662;23.352;2023-12-07T14:02:59;94792.78;;;2.43;88.73
41062;BME280;26812;42.662;23.352;2023-12-07T14:05:24;94788.56;;;2.32;89.10
41062;BME280;26812;42.662;23.352;2023-12-07T14:07:50;94802.41;;;2.24;89.53
41062;BME280;26812;42.662;23.352;2023-12-07T14:10:16;94775.00;;;2.13;89.42
41062;BME280;26812;42.662;23.352;2023-12-07T14:12:41;94804.53;;;2.27;89.97
41062;BME280;26812;42.662;23.352;2023-12-07T14:15:08;94779.81;;;2.16;88.89
41062;BME280;26812;42.662;23.352;2023-12-07T14:17:33;94806.38;;;2.26;88.94
41062;BME280;26812;42.662;23.352;2023-12-07T14:22:29;94807.72;;;2.24;89.77
41062;BME280;26812;42.662;23.352;2023-12-07T14:24:55;94805.31;;;2.22;90.30
41062;BME280;26812;42.662;23.352;2023-12-07T14:27:20;94815.41;;;2.35;89.84
41062;BME280;26812;42.662;23.352;2023-12-07T14:29:46;94810.91;;;2.46;88.75
41062;BME280;26812;42.662;23.352;2023-12-07T14:32:11;94808.78;;;2.28;88.98
41062;BME280;26812;42.662;23.352;2023-12-07T14:34:37;94814.34;;;2.46;89.49
41062;BME280;26812;42.662;23.352;2023-12-07T14:37:03;94824.44;;;2.49;88.58